DW7431 Cala Millor ES current weather conditions

sailwx.info

Wind from 315 at 4 knots gusting 4

Air temperature 24.4° C
Dewpoint 19.3° C

Last reported at 2014-Oct-21 19:01 UTC.
Time now 2014-Oct-21 21:42 UTC

Location: N 39°36' E 003°22'.
View on Google Maps.

See reports from other nearby stations

  
Tides and Currents Weather Stations Pressure Air Temp Water Temp Dewpoint Dewpoint Depression Visibility Wind Speed Wind Dir Waves Ship Positions
date/time (UTC)wind fromknots sea level pressurealtimeterstation pressurevisibilityair tempwater tempwave heightnotes
2014-Oct-21 19:01 315 4 gusting 4 24.4
2014-Oct-21 18:01 315 2 gusting 2 25.6
2014-Oct-21 14:01 135 4 gusting 3 29.4
2014-Oct-21 12:01 157 3 gusting 3 30.0
2014-Oct-21 11:01 135 3 gusting 4 29.4
2014-Oct-21 10:01 157 1 gusting 2 27.8
2014-Oct-21 08:01 292 5 gusting 7 21.7
2014-Oct-21 06:01 315 3 gusting 4 18.9
2014-Oct-21 05:01 292 0 gusting 3 18.9
2014-Oct-21 04:01 067 19.4
2014-Oct-21 03:01 090 20.0
2014-Oct-21 02:01 315 4 gusting 5 20.6
2014-Oct-21 00:01 315 5 gusting 6 21.1
2014-Oct-20 22:01 292 5 gusting 4 22.2
2014-Oct-20 21:01 337 2 gusting 3 22.8
2014-Oct-20 19:01 292 2 gusting 2 24.4
2014-Oct-20 18:01 315 2 gusting 3 25.6
2014-Oct-20 17:01 247 4 gusting 5 26.7
2014-Oct-20 15:01 247 5 gusting 6 30.6
2014-Oct-20 14:01 225 5 gusting 7 31.1
2014-Oct-20 13:01 180 5 gusting 6 31.1
2014-Oct-20 11:01 180 3 gusting 6 30.0
2014-Oct-20 10:01 225 0 gusting 4 27.8
2014-Oct-20 09:01 225 0 23.9
2014-Oct-20 07:01 292 20.0
2014-Oct-20 06:01 292 2 gusting 3 20.0
2014-Oct-20 05:01 292 19.4
2014-Oct-20 02:01 022 20.6
2014-Oct-20 01:01 022 21.1
2014-Oct-20 00:01 022 21.7
2014-Oct-19 23:01 022 22.2
2014-Oct-19 21:01 022 23.9